sensor_id;sensor_type;location;lat;lon;timestamp;P1;durP1;ratioP1;P2;durP2;ratioP2
73776;SDS011;62088;50.240;2.696;2022-12-07T00:01:27;21.98;;;12.27;;
73776;SDS011;62088;50.240;2.696;2022-12-07T00:04:00;21.58;;;12.57;;
73776;SDS011;62088;50.240;2.696;2022-12-07T00:06:35;22.33;;;13.10;;
73776;SDS011;62088;50.240;2.696;2022-12-07T00:09:08;20.88;;;13.40;;
73776;SDS011;62088;50.240;2.696;2022-12-07T00:11:37;26.50;;;13.67;;
73776;SDS011;62088;50.240;2.696;2022-12-07T00:14:07;21.63;;;13.68;;
73776;SDS011;62088;50.240;2.696;2022-12-07T00:16:38;26.10;;;14.00;;
73776;SDS011;62088;50.240;2.696;2022-12-07T00:19:05;25.20;;;13.93;;
73776;SDS011;62088;50.240;2.696;2022-12-07T00:21:33;23.88;;;13.13;;
73776;SDS011;62088;50.240;2.696;2022-12-07T00:24:02;27.95;;;14.23;;
73776;SDS011;62088;50.240;2.696;2022-12-07T00:26:32;21.73;;;12.45;;
73776;SDS011;62088;50.240;2.696;2022-12-07T00:29:03;23.58;;;12.98;;
73776;SDS011;62088;50.240;2.696;2022-12-07T00:31:32;30.17;;;14.43;;
73776;SDS011;62088;50.240;2.696;2022-12-07T00:34:05;20.35;;;11.13;;
73776;SDS011;62088;50.240;2.696;2022-12-07T00:36:33;20.77;;;12.63;;
73776;SDS011;62088;50.240;2.696;2022-12-07T00:39:00;24.25;;;13.50;;
73776;SDS011;62088;50.240;2.696;2022-12-07T00:41:28;20.98;;;13.30;;
73776;SDS011;62088;50.240;2.696;2022-12-07T00:43:56;23.08;;;13.00;;
73776;SDS011;62088;50.240;2.696;2022-12-07T00:46:24;21.42;;;12.80;;
73776;SDS011;62088;50.240;2.696;2022-12-07T00:48:52;21.58;;;12.55;;
73776;SDS011;62088;50.240;2.696;2022-12-07T00:51:23;19.77;;;12.15;;
73776;SDS011;62088;50.240;2.696;2022-12-07T00:53:51;25.55;;;12.32;;
73776;SDS011;62088;50.240;2.696;2022-12-07T00:56:22;22.20;;;12.82;;
73776;SDS011;62088;50.240;2.696;2022-12-07T00:58:56;26.80;;;13.30;;
73776;SDS011;62088;50.240;2.696;2022-12-07T01:01:25;19.40;;;11.68;;
73776;SDS011;62088;50.240;2.696;2022-12-07T01:03:54;23.08;;;11.88;;
73776;SDS011;62088;50.240;2.696;2022-12-07T01:06:22;18.70;;;11.68;;
73776;SDS011;62088;50.240;2.696;2022-12-07T01:08:50;20.52;;;11.88;;
73776;SDS011;62088;50.240;2.696;2022-12-07T01:11:19;20.20;;;11.43;;
73776;SDS011;62088;50.240;2.696;2022-12-07T01:13:49;19.73;;;11.23;;
73776;SDS011;62088;50.240;2.696;2022-12-07T01:16:17;17.08;;;9.38;;
73776;SDS011;62088;50.240;2.696;2022-12-07T01:18:46;17.20;;;9.80;;
73776;SDS011;62088;50.240;2.696;2022-12-07T01:21:18;17.27;;;9.65;;
73776;SDS011;62088;50.240;2.696;2022-12-07T01:23:47;15.60;;;7.68;;
73776;SDS011;62088;50.240;2.696;2022-12-07T01:26:16;13.82;;;8.45;;
73776;SDS011;62088;50.240;2.696;2022-12-07T01:28:45;13.43;;;7.93;;
73776;SDS011;62088;50.240;2.696;2022-12-07T01:31:14;15.05;;;8.48;;
73776;SDS011;62088;50.240;2.696;2022-12-07T01:33:49;14.63;;;8.65;;
73776;SDS011;62088;50.240;2.696;2022-12-07T01:36:19;17.02;;;8.00;;
73776;SDS011;62088;50.240;2.696;2022-12-07T01:38:53;12.30;;;7.47;;
73776;SDS011;62088;50.240;2.696;2022-12-07T01:41:23;16.10;;;8.45;;
73776;SDS011;62088;50.240;2.696;2022-12-07T01:44:12;12.80;;;6.90;;
73776;SDS011;62088;50.240;2.696;2022-12-07T01:46:50;16.27;;;7.88;;
73776;SDS011;62088;50.240;2.696;2022-12-07T01:49:32;16.35;;;8.45;;
73776;SDS011;62088;50.240;2.696;2022-12-07T01:54:38;21.48;;;10.13;;
73776;SDS011;62088;50.240;2.696;2022-12-07T01:57:06;20.27;;;10.85;;
73776;SDS011;62088;50.240;2.696;2022-12-07T01:59:35;26.95;;;10.05;;
73776;SDS011;62088;50.240;2.696;2022-12-07T02:02:03;20.00;;;11.20;;
73776;SDS011;62088;50.240;2.696;2022-12-07T02:04:36;17.58;;;9.23;;
73776;SDS011;62088;50.240;2.696;2022-12-07T02:07:03;17.88;;;10.75;;
73776;SDS011;62088;50.240;2.696;2022-12-07T02:09:31;20.88;;;10.80;;
73776;SDS011;62088;50.240;2.696;2022-12-07T02:11:58;21.55;;;10.50;;
73776;SDS011;62088;50.240;2.696;2022-12-07T02:14:25;17.25;;;9.85;;
73776;SDS011;62088;50.240;2.696;2022-12-07T02:16:59;25.65;;;12.50;;
73776;SDS011;62088;50.240;2.696;2022-12-07T02:20:03;29.35;;;12.93;;
73776;SDS011;62088;50.240;2.696;2022-12-07T02:31:44;29.52;;;12.70;;
73776;SDS011;62088;50.240;2.696;2022-12-07T02:34:19;27.10;;;13.05;;
73776;SDS011;62088;50.240;2.696;2022-12-07T02:36:55;29.55;;;13.02;;
73776;SDS011;62088;50.240;2.696;2022-12-07T02:40:04;27.05;;;11.75;;
73776;SDS011;62088;50.240;2.696;2022-12-07T02:42:36;25.48;;;11.07;;
73776;SDS011;62088;50.240;2.696;2022-12-07T02:45:08;21.70;;;11.70;;
73776;SDS011;62088;50.240;2.696;2022-12-07T02:47:39;29.55;;;11.52;;
73776;SDS011;62088;50.240;2.696;2022-12-07T02:50:07;27.80;;;12.70;;
73776;SDS011;62088;50.240;2.696;2022-12-07T02:52:35;28.42;;;13.43;;
73776;SDS011;62088;50.240;2.696;2022-12-07T02:55:02;28.13;;;13.05;;
73776;SDS011;62088;50.240;2.696;2022-12-07T03:01:03;21.30;;;10.93;;
73776;SDS011;62088;50.240;2.696;2022-12-07T03:03:48;23.55;;;11.77;;
73776;SDS011;62088;50.240;2.696;2022-12-07T03:06:32;25.65;;;12.45;;
73776;SDS011;62088;50.240;2.696;2022-12-07T03:09:17;29.38;;;13.07;;
73776;SDS011;62088;50.240;2.696;2022-12-07T03:12:00;23.48;;;11.70;;
73776;SDS011;62088;50.240;2.696;2022-12-07T03:14:36;29.00;;;13.23;;
73776;SDS011;62088;50.240;2.696;2022-12-07T03:19:44;36.42;;;13.55;;
73776;SDS011;62088;50.240;2.696;2022-12-07T03:22:13;31.20;;;13.60;;
73776;SDS011;62088;50.240;2.696;2022-12-07T03:24:51;32.88;;;13.18;;
73776;SDS011;62088;50.240;2.696;2022-12-07T03:27:22;29.75;;;13.68;;
73776;SDS011;62088;50.240;2.696;2022-12-07T03:30:00;30.75;;;13.02;;
73776;SDS011;62088;50.240;2.696;2022-12-07T03:32:33;26.15;;;12.32;;
73776;SDS011;62088;50.240;2.696;2022-12-07T03:40:16;24.73;;;11.98;;
73776;SDS011;62088;50.240;2.696;2022-12-07T03:43:00;33.67;;;12.32;;
73776;SDS011;62088;50.240;2.696;2022-12-07T03:45:31;26.33;;;11.90;;
73776;SDS011;62088;50.240;2.696;2022-12-07T03:48:24;37.17;;;13.95;;
73776;SDS011;62088;50.240;2.696;2022-12-07T03:51:10;32.90;;;13.50;;
73776;SDS011;62088;50.240;2.696;2022-12-07T03:53:58;31.58;;;12.70;;
73776;SDS011;62088;50.240;2.696;2022-12-07T03:56:45;25.05;;;12.88;;
73776;SDS011;62088;50.240;2.696;2022-12-07T03:59:13;30.83;;;12.25;;
73776;SDS011;62088;50.240;2.696;2022-12-07T04:01:47;32.53;;;12.88;;
73776;SDS011;62088;50.240;2.696;2022-12-07T04:04:20;29.73;;;12.73;;
73776;SDS011;62088;50.240;2.696;2022-12-07T04:06:48;34.17;;;13.57;;
73776;SDS011;62088;50.240;2.696;2022-12-07T04:09:15;36.15;;;15.40;;
73776;SDS011;62088;50.240;2.696;2022-12-07T04:11:43;28.33;;;12.60;;
73776;SDS011;62088;50.240;2.696;2022-12-07T04:14:10;27.70;;;12.80;;
73776;SDS011;62088;50.240;2.696;2022-12-07T04:16:50;38.47;;;13.32;;
73776;SDS011;62088;50.240;2.696;2022-12-07T04:19:19;27.95;;;13.77;;
73776;SDS011;62088;50.240;2.696;2022-12-07T04:21:47;36.55;;;12.18;;
73776;SDS011;62088;50.240;2.696;2022-12-07T04:24:14;28.95;;;12.50;;
73776;SDS011;62088;50.240;2.696;2022-12-07T04:26:42;33.30;;;13.65;;
73776;SDS011;62088;50.240;2.696;2022-12-07T04:29:10;32.47;;;12.75;;
73776;SDS011;62088;50.240;2.696;2022-12-07T04:31:37;38.28;;;13.52;;
73776;SDS011;62088;50.240;2.696;2022-12-07T04:34:05;40.80;;;14.90;;
73776;SDS011;62088;50.240;2.696;2022-12-07T04:36:32;27.50;;;13.45;;
73776;SDS011;62088;50.240;2.696;2022-12-07T04:39:00;34.97;;;14.60;;
73776;SDS011;62088;50.240;2.696;2022-12-07T04:41:27;36.78;;;15.63;;
73776;SDS011;62088;50.240;2.696;2022-12-07T04:43:58;33.30;;;14.05;;
73776;SDS011;62088;50.240;2.696;2022-12-07T04:46:27;45.75;;;15.63;;
73776;SDS011;62088;50.240;2.696;2022-12-07T04:48:55;41.17;;;14.65;;
73776;SDS011;62088;50.240;2.696;2022-12-07T04:51:24;35.95;;;14.35;;
73776;SDS011;62088;50.240;2.696;2022-12-07T04:53:53;42.38;;;15.50;;
73776;SDS011;62088;50.240;2.696;2022-12-07T04:56:21;43.47;;;14.82;;
73776;SDS011;62088;50.240;2.696;2022-12-07T04:58:49;40.40;;;14.02;;
73776;SDS011;62088;50.240;2.696;2022-12-07T05:01:17;38.17;;;14.38;;
73776;SDS011;62088;50.240;2.696;2022-12-07T05:03:45;46.05;;;16.33;;
73776;SDS011;62088;50.240;2.696;2022-12-07T05:06:12;42.05;;;14.85;;
73776;SDS011;62088;50.240;2.696;2022-12-07T05:08:40;37.30;;;14.32;;
73776;SDS011;62088;50.240;2.696;2022-12-07T05:11:07;37.35;;;14.40;;
73776;SDS011;62088;50.240;2.696;2022-12-07T05:13:35;39.65;;;14.85;;
73776;SDS011;62088;50.240;2.696;2022-12-07T05:16:02;37.63;;;14.52;;
73776;SDS011;62088;50.240;2.696;2022-12-07T05:18:30;41.25;;;14.02;;
73776;SDS011;62088;50.240;2.696;2022-12-07T05:20:57;32.92;;;14.40;;
73776;SDS011;62088;50.240;2.696;2022-12-07T05:23:23;38.58;;;15.25;;
73776;SDS011;62088;50.240;2.696;2022-12-07T05:25:50;48.03;;;15.43;;
73776;SDS011;62088;50.240;2.696;2022-12-07T05:28:17;40.08;;;14.70;;
73776;SDS011;62088;50.240;2.696;2022-12-07T05:30:44;34.95;;;15.10;;
73776;SDS011;62088;50.240;2.696;2022-12-07T05:33:12;36.15;;;14.40;;
73776;SDS011;62088;50.240;2.696;2022-12-07T05:35:39;47.78;;;15.23;;
73776;SDS011;62088;50.240;2.696;2022-12-07T05:38:06;44.80;;;16.35;;
73776;SDS011;62088;50.240;2.696;2022-12-07T05:40:33;41.10;;;16.15;;
73776;SDS011;62088;50.240;2.696;2022-12-07T05:43:00;41.75;;;15.27;;
73776;SDS011;62088;50.240;2.696;2022-12-07T05:45:30;45.15;;;16.08;;
73776;SDS011;62088;50.240;2.696;2022-12-07T05:47:57;44.28;;;15.85;;
73776;SDS011;62088;50.240;2.696;2022-12-07T05:50:24;43.22;;;16.17;;
73776;SDS011;62088;50.240;2.696;2022-12-07T05:52:59;43.85;;;15.13;;
73776;SDS011;62088;50.240;2.696;2022-12-07T05:55:26;43.60;;;16.10;;
73776;SDS011;62088;50.240;2.696;2022-12-07T05:57:53;37.38;;;15.68;;
73776;SDS011;62088;50.240;2.696;2022-12-07T06:00:39;42.80;;;15.60;;
73776;SDS011;62088;50.240;2.696;2022-12-07T06:03:06;35.53;;;14.70;;
73776;SDS011;62088;50.240;2.696;2022-12-07T06:05:33;37.33;;;14.77;;
73776;SDS011;62088;50.240;2.696;2022-12-07T06:08:00;39.08;;;14.00;;
73776;SDS011;62088;50.240;2.696;2022-12-07T06:10:31;42.53;;;16.70;;
73776;SDS011;62088;50.240;2.696;2022-12-07T06:12:58;43.83;;;16.17;;
73776;SDS011;62088;50.240;2.696;2022-12-07T06:15:25;43.20;;;15.25;;
73776;SDS011;62088;50.240;2.696;2022-12-07T06:17:52;52.33;;;16.35;;
73776;SDS011;62088;50.240;2.696;2022-12-07T06:20:19;43.25;;;14.45;;
73776;SDS011;62088;50.240;2.696;2022-12-07T06:22:46;39.72;;;14.80;;
73776;SDS011;62088;50.240;2.696;2022-12-07T06:25:13;42.40;;;15.20;;
73776;SDS011;62088;50.240;2.696;2022-12-07T06:27:40;33.17;;;14.80;;
73776;SDS011;62088;50.240;2.696;2022-12-07T06:30:07;37.17;;;14.18;;
73776;SDS011;62088;50.240;2.696;2022-12-07T06:32:35;37.78;;;14.48;;
73776;SDS011;62088;50.240;2.696;2022-12-07T06:35:03;37.75;;;13.90;;
73776;SDS011;62088;50.240;2.696;2022-12-07T06:37:31;35.22;;;14.45;;
73776;SDS011;62088;50.240;2.696;2022-12-07T06:39:58;34.30;;;14.02;;
73776;SDS011;62088;50.240;2.696;2022-12-07T06:42:26;34.88;;;15.27;;
73776;SDS011;62088;50.240;2.696;2022-12-07T06:44:53;30.45;;;13.38;;
73776;SDS011;62088;50.240;2.696;2022-12-07T06:47:20;34.83;;;14.38;;
73776;SDS011;62088;50.240;2.696;2022-12-07T06:50:07;32.08;;;12.80;;
73776;SDS011;62088;50.240;2.696;2022-12-07T06:52:34;34.20;;;13.98;;
73776;SDS011;62088;50.240;2.696;2022-12-07T06:55:01;28.80;;;12.55;;
73776;SDS011;62088;50.240;2.696;2022-12-07T06:57:28;37.28;;;13.57;;
73776;SDS011;62088;50.240;2.696;2022-12-07T06:59:55;39.33;;;14.10;;
73776;SDS011;62088;50.240;2.696;2022-12-07T07:02:22;31.52;;;12.23;;
73776;SDS011;62088;50.240;2.696;2022-12-07T07:04:49;34.95;;;12.70;;
73776;SDS011;62088;50.240;2.696;2022-12-07T07:07:16;32.10;;;12.27;;
73776;SDS011;62088;50.240;2.696;2022-12-07T07:09:43;35.47;;;13.05;;
73776;SDS011;62088;50.240;2.696;2022-12-07T07:12:10;25.35;;;11.23;;
73776;SDS011;62088;50.240;2.696;2022-12-07T07:14:37;25.63;;;11.35;;
73776;SDS011;62088;50.240;2.696;2022-12-07T07:17:04;37.47;;;13.82;;
73776;SDS011;62088;50.240;2.696;2022-12-07T07:19:31;32.22;;;14.30;;
73776;SDS011;62088;50.240;2.696;2022-12-07T07:21:58;47.67;;;16.23;;
73776;SDS011;62088;50.240;2.696;2022-12-07T07:24:25;36.67;;;13.65;;
73776;SDS011;62088;50.240;2.696;2022-12-07T07:26:52;34.67;;;15.00;;
73776;SDS011;62088;50.240;2.696;2022-12-07T07:29:19;35.75;;;14.18;;
73776;SDS011;62088;50.240;2.696;2022-12-07T07:31:46;36.42;;;14.18;;
73776;SDS011;62088;50.240;2.696;2022-12-07T07:34:13;37.80;;;14.70;;
73776;SDS011;62088;50.240;2.696;2022-12-07T07:36:40;30.73;;;13.93;;
73776;SDS011;62088;50.240;2.696;2022-12-07T07:39:07;34.97;;;14.05;;
73776;SDS011;62088;50.240;2.696;2022-12-07T07:41:35;31.45;;;14.90;;
73776;SDS011;62088;50.240;2.696;2022-12-07T07:44:02;31.05;;;12.23;;
73776;SDS011;62088;50.240;2.696;2022-12-07T07:46:29;31.42;;;14.25;;
73776;SDS011;62088;50.240;2.696;2022-12-07T07:48:56;35.70;;;13.88;;
73776;SDS011;62088;50.240;2.696;2022-12-07T07:51:23;34.42;;;14.35;;
73776;SDS011;62088;50.240;2.696;2022-12-07T07:53:51;34.53;;;15.25;;
73776;SDS011;62088;50.240;2.696;2022-12-07T07:56:18;28.67;;;13.95;;
73776;SDS011;62088;50.240;2.696;2022-12-07T07:58:45;41.47;;;14.00;;
73776;SDS011;62088;50.240;2.696;2022-12-07T08:01:12;37.80;;;16.65;;
73776;SDS011;62088;50.240;2.696;2022-12-07T08:03:40;43.58;;;16.35;;
73776;SDS011;62088;50.240;2.696;2022-12-07T08:06:06;38.97;;;14.55;;
73776;SDS011;62088;50.240;2.696;2022-12-07T08:08:33;42.97;;;17.52;;
73776;SDS011;62088;50.240;2.696;2022-12-07T08:11:00;38.92;;;16.77;;
73776;SDS011;62088;50.240;2.696;2022-12-07T08:13:32;43.42;;;17.83;;
73776;SDS011;62088;50.240;2.696;2022-12-07T08:16:03;42.25;;;16.25;;
73776;SDS011;62088;50.240;2.696;2022-12-07T08:18:34;44.20;;;18.98;;
73776;SDS011;62088;50.240;2.696;2022-12-07T08:21:03;46.78;;;18.45;;
73776;SDS011;62088;50.240;2.696;2022-12-07T08:23:30;43.08;;;17.98;;
73776;SDS011;62088;50.240;2.696;2022-12-07T08:26:06;45.78;;;17.27;;
73776;SDS011;62088;50.240;2.696;2022-12-07T08:28:35;40.75;;;18.63;;
73776;SDS011;62088;50.240;2.696;2022-12-07T08:31:04;45.67;;;18.13;;
73776;SDS011;62088;50.240;2.696;2022-12-07T08:33:34;40.58;;;18.15;;
73776;SDS011;62088;50.240;2.696;2022-12-07T08:36:05;45.38;;;17.40;;
73776;SDS011;62088;50.240;2.696;2022-12-07T08:38:34;41.83;;;19.13;;
73776;SDS011;62088;50.240;2.696;2022-12-07T08:41:02;44.83;;;17.42;;
73776;SDS011;62088;50.240;2.696;2022-12-07T08:43:30;37.85;;;17.38;;
73776;SDS011;62088;50.240;2.696;2022-12-07T08:46:09;51.05;;;18.65;;
73776;SDS011;62088;50.240;2.696;2022-12-07T08:48:44;35.33;;;16.10;;
73776;SDS011;62088;50.240;2.696;2022-12-07T08:51:17;64.72;;;20.02;;
73776;SDS011;62088;50.240;2.696;2022-12-07T08:53:45;42.75;;;17.05;;
73776;SDS011;62088;50.240;2.696;2022-12-07T08:56:12;36.80;;;15.18;;
73776;SDS011;62088;50.240;2.696;2022-12-07T08:58:40;45.78;;;18.98;;
73776;SDS011;62088;50.240;2.696;2022-12-07T09:01:07;43.67;;;17.50;;
73776;SDS011;62088;50.240;2.696;2022-12-07T09:03:34;37.80;;;17.70;;
73776;SDS011;62088;50.240;2.696;2022-12-07T09:06:02;41.35;;;16.77;;
73776;SDS011;62088;50.240;2.696;2022-12-07T09:08:31;46.97;;;16.80;;
73776;SDS011;62088;50.240;2.696;2022-12-07T09:11:02;49.47;;;17.27;;
73776;SDS011;62088;50.240;2.696;2022-12-07T09:13:29;56.03;;;18.15;;
73776;SDS011;62088;50.240;2.696;2022-12-07T09:15:56;49.67;;;18.75;;
73776;SDS011;62088;50.240;2.696;2022-12-07T09:18:23;40.08;;;18.08;;
73776;SDS011;62088;50.240;2.696;2022-12-07T09:20:51;43.58;;;19.05;;
73776;SDS011;62088;50.240;2.696;2022-12-07T09:23:18;49.85;;;20.05;;
73776;SDS011;62088;50.240;2.696;2022-12-07T09:25:45;53.83;;;19.73;;
73776;SDS011;62088;50.240;2.696;2022-12-07T09:28:12;55.25;;;18.73;;
73776;SDS011;62088;50.240;2.696;2022-12-07T09:30:39;53.03;;;18.90;;
73776;SDS011;62088;50.240;2.696;2022-12-07T09:33:32;45.47;;;18.85;;
73776;SDS011;62088;50.240;2.696;2022-12-07T09:35:59;64.60;;;21.52;;
73776;SDS011;62088;50.240;2.696;2022-12-07T09:38:26;54.78;;;21.48;;
73776;SDS011;62088;50.240;2.696;2022-12-07T09:40:53;59.20;;;22.60;;
73776;SDS011;62088;50.240;2.696;2022-12-07T09:43:22;58.72;;;22.70;;
73776;SDS011;62088;50.240;2.696;2022-12-07T09:45:52;54.33;;;21.95;;
73776;SDS011;62088;50.240;2.696;2022-12-07T09:48:22;67.50;;;23.90;;
73776;SDS011;62088;50.240;2.696;2022-12-07T09:53:27;56.20;;;19.85;;
73776;SDS011;62088;50.240;2.696;2022-12-07T09:56:00;57.95;;;20.88;;
73776;SDS011;62088;50.240;2.696;2022-12-07T09:58:28;50.78;;;20.73;;
73776;SDS011;62088;50.240;2.696;2022-12-07T10:00:58;59.00;;;20.65;;
73776;SDS011;62088;50.240;2.696;2022-12-07T10:03:28;38.42;;;18.70;;
73776;SDS011;62088;50.240;2.696;2022-12-07T10:05:55;46.80;;;19.60;;
73776;SDS011;62088;50.240;2.696;2022-12-07T10:08:24;41.42;;;18.50;;
73776;SDS011;62088;50.240;2.696;2022-12-07T10:10:53;42.55;;;17.42;;
73776;SDS011;62088;50.240;2.696;2022-12-07T10:13:34;49.92;;;18.98;;
73776;SDS011;62088;50.240;2.696;2022-12-07T10:16:06;48.60;;;19.58;;
73776;SDS011;62088;50.240;2.696;2022-12-07T10:18:50;51.63;;;18.77;;
73776;SDS011;62088;50.240;2.696;2022-12-07T10:21:22;47.45;;;18.27;;
73776;SDS011;62088;50.240;2.696;2022-12-07T10:24:13;45.80;;;17.98;;
73776;SDS011;62088;50.240;2.696;2022-12-07T10:34:32;48.42;;;20.38;;
73776;SDS011;62088;50.240;2.696;2022-12-07T10:39:48;41.67;;;16.50;;
73776;SDS011;62088;50.240;2.696;2022-12-07T10:42:21;39.90;;;15.13;;
73776;SDS011;62088;50.240;2.696;2022-12-07T10:47:42;34.60;;;14.13;;
73776;SDS011;62088;50.240;2.696;2022-12-07T10:53:27;30.63;;;13.18;;
73776;SDS011;62088;50.240;2.696;2022-12-07T10:56:25;36.50;;;13.77;;
73776;SDS011;62088;50.240;2.696;2022-12-07T11:01:51;26.42;;;11.88;;
73776;SDS011;62088;50.240;2.696;2022-12-07T11:04:37;24.90;;;11.90;;
73776;SDS011;62088;50.240;2.696;2022-12-07T11:15:26;21.63;;;11.77;;
73776;SDS011;62088;50.240;2.696;2022-12-07T11:18:13;25.30;;;12.63;;
73776;SDS011;62088;50.240;2.696;2022-12-07T11:37:44;16.90;;;8.32;;
73776;SDS011;62088;50.240;2.696;2022-12-07T11:40:15;16.33;;;7.97;;
73776;SDS011;62088;50.240;2.696;2022-12-07T11:42:52;20.52;;;8.27;;
73776;SDS011;62088;50.240;2.696;2022-12-07T11:45:34;26.35;;;8.00;;
73776;SDS011;62088;50.240;2.696;2022-12-07T11:50:48;12.70;;;4.65;;
73776;SDS011;62088;50.240;2.696;2022-12-07T11:53:20;14.60;;;4.40;;
73776;SDS011;62088;50.240;2.696;2022-12-07T12:06:36;12.63;;;3.80;;
73776;SDS011;62088;50.240;2.696;2022-12-07T12:15:03;10.07;;;4.45;;
73776;SDS011;62088;50.240;2.696;2022-12-07T12:18:01;12.82;;;4.15;;
73776;SDS011;62088;50.240;2.696;2022-12-07T12:25:45;10.18;;;4.00;;
73776;SDS011;62088;50.240;2.696;2022-12-07T12:33:57;13.90;;;4.50;;
73776;SDS011;62088;50.240;2.696;2022-12-07T12:39:15;12.45;;;5.25;;
73776;SDS011;62088;50.240;2.696;2022-12-07T12:51:46;14.85;;;5.30;;
73776;SDS011;62088;50.240;2.696;2022-12-07T12:56:50;15.00;;;5.78;;
73776;SDS011;62088;50.240;2.696;2022-12-07T12:59:33;12.50;;;4.50;;
73776;SDS011;62088;50.240;2.696;2022-12-07T13:02:38;10.25;;;4.18;;
73776;SDS011;62088;50.240;2.696;2022-12-07T13:05:25;11.13;;;4.13;;
73776;SDS011;62088;50.240;2.696;2022-12-07T13:11:46;11.73;;;3.85;;
73776;SDS011;62088;50.240;2.696;2022-12-07T13:17:09;11.75;;;3.88;;
73776;SDS011;62088;50.240;2.696;2022-12-07T13:24:56;10.68;;;4.10;;
73776;SDS011;62088;50.240;2.696;2022-12-07T13:27:26;8.50;;;3.22;;
73776;SDS011;62088;50.240;2.696;2022-12-07T13:29:54;8.18;;;3.60;;
73776;SDS011;62088;50.240;2.696;2022-12-07T13:32:24;14.13;;;4.03;;
73776;SDS011;62088;50.240;2.696;2022-12-07T13:34:53;11.18;;;3.97;;
73776;SDS011;62088;50.240;2.696;2022-12-07T13:37:21;10.80;;;3.88;;
73776;SDS011;62088;50.240;2.696;2022-12-07T13:40:19;10.13;;;3.90;;
73776;SDS011;62088;50.240;2.696;2022-12-07T13:42:56;9.63;;;4.22;;
73776;SDS011;62088;50.240;2.696;2022-12-07T13:45:31;10.63;;;4.10;;
73776;SDS011;62088;50.240;2.696;2022-12-07T13:50:54;15.80;;;4.70;;
73776;SDS011;62088;50.240;2.696;2022-12-07T13:53:23;13.95;;;4.25;;
73776;SDS011;62088;50.240;2.696;2022-12-07T13:55:57;10.70;;;3.92;;
73776;SDS011;62088;50.240;2.696;2022-12-07T13:58:26;8.57;;;3.78;;
73776;SDS011;62088;50.240;2.696;2022-12-07T14:00:56;11.82;;;3.70;;
73776;SDS011;62088;50.240;2.696;2022-12-07T14:03:28;12.68;;;3.65;;
73776;SDS011;62088;50.240;2.696;2022-12-07T14:08:33;8.02;;;3.10;;
73776;SDS011;62088;50.240;2.696;2022-12-07T14:11:00;9.18;;;3.50;;
73776;SDS011;62088;50.240;2.696;2022-12-07T14:13:37;7.18;;;3.72;;
73776;SDS011;62088;50.240;2.696;2022-12-07T14:16:27;8.70;;;3.45;;
73776;SDS011;62088;50.240;2.696;2022-12-07T14:18:55;10.05;;;3.72;;
73776;SDS011;62088;50.240;2.696;2022-12-07T14:21:24;9.13;;;3.67;;
73776;SDS011;62088;50.240;2.696;2022-12-07T14:24:14;9.00;;;3.17;;
73776;SDS011;62088;50.240;2.696;2022-12-07T14:26:46;9.18;;;3.03;;
73776;SDS011;62088;50.240;2.696;2022-12-07T14:31:54;8.65;;;3.40;;
73776;SDS011;62088;50.240;2.696;2022-12-07T14:34:23;6.93;;;3.58;;
73776;SDS011;62088;50.240;2.696;2022-12-07T14:36:50;10.38;;;3.80;;
73776;SDS011;62088;50.240;2.696;2022-12-07T14:39:17;8.38;;;3.25;;
73776;SDS011;62088;50.240;2.696;2022-12-07T14:41:44;10.90;;;3.83;;
73776;SDS011;62088;50.240;2.696;2022-12-07T14:44:18;9.73;;;3.22;;
73776;SDS011;62088;50.240;2.696;2022-12-07T14:46:52;9.52;;;3.33;;
73776;SDS011;62088;50.240;2.696;2022-12-07T14:49:39;7.25;;;2.95;;
73776;SDS011;62088;50.240;2.696;2022-12-07T14:52:08;6.80;;;2.88;;
73776;SDS011;62088;50.240;2.696;2022-12-07T14:55:12;7.50;;;3.10;;
73776;SDS011;62088;50.240;2.696;2022-12-07T14:57:48;5.82;;;2.63;;
73776;SDS011;62088;50.240;2.696;2022-12-07T15:00:15;9.32;;;2.78;;
73776;SDS011;62088;50.240;2.696;2022-12-07T15:02:45;7.57;;;2.90;;
73776;SDS011;62088;50.240;2.696;2022-12-07T15:05:13;14.02;;;3.72;;
73776;SDS011;62088;50.240;2.696;2022-12-07T15:07:42;6.55;;;2.80;;
73776;SDS011;62088;50.240;2.696;2022-12-07T15:10:17;7.47;;;3.47;;
73776;SDS011;62088;50.240;2.696;2022-12-07T15:12:50;9.88;;;2.92;;
73776;SDS011;62088;50.240;2.696;2022-12-07T15:15:17;8.27;;;3.00;;
73776;SDS011;62088;50.240;2.696;2022-12-07T15:17:44;8.35;;;3.50;;
73776;SDS011;62088;50.240;2.696;2022-12-07T15:20:12;12.52;;;3.10;;
73776;SDS011;62088;50.240;2.696;2022-12-07T15:22:40;6.28;;;2.70;;
73776;SDS011;62088;50.240;2.696;2022-12-07T15:25:08;5.68;;;3.03;;
73776;SDS011;62088;50.240;2.696;2022-12-07T15:27:39;9.15;;;2.80;;
73776;SDS011;62088;50.240;2.696;2022-12-07T15:30:06;8.38;;;3.03;;
73776;SDS011;62088;50.240;2.696;2022-12-07T15:32:33;11.43;;;3.53;;
73776;SDS011;62088;50.240;2.696;2022-12-07T15:35:00;7.40;;;3.65;;
73776;SDS011;62088;50.240;2.696;2022-12-07T15:37:28;6.70;;;3.05;;
73776;SDS011;62088;50.240;2.696;2022-12-07T15:39:54;9.50;;;3.35;;
73776;SDS011;62088;50.240;2.696;2022-12-07T15:42:22;7.95;;;3.22;;
73776;SDS011;62088;50.240;2.696;2022-12-07T15:44:49;6.55;;;3.53;;
73776;SDS011;62088;50.240;2.696;2022-12-07T15:47:33;8.70;;;4.22;;
73776;SDS011;62088;50.240;2.696;2022-12-07T15:50:22;8.13;;;3.72;;
73776;SDS011;62088;50.240;2.696;2022-12-07T15:52:49;7.80;;;3.72;;
73776;SDS011;62088;50.240;2.696;2022-12-07T15:55:16;9.48;;;4.57;;
73776;SDS011;62088;50.240;2.696;2022-12-07T15:57:43;12.90;;;4.90;;
73776;SDS011;62088;50.240;2.696;2022-12-07T16:00:11;12.13;;;4.80;;
73776;SDS011;62088;50.240;2.696;2022-12-07T16:02:38;8.95;;;4.15;;
73776;SDS011;62088;50.240;2.696;2022-12-07T16:05:06;8.60;;;3.88;;
73776;SDS011;62088;50.240;2.696;2022-12-07T16:07:33;9.27;;;3.85;;
73776;SDS011;62088;50.240;2.696;2022-12-07T16:10:00;10.50;;;4.60;;
73776;SDS011;62088;50.240;2.696;2022-12-07T16:12:27;10.63;;;4.25;;
73776;SDS011;62088;50.240;2.696;2022-12-07T16:14:54;9.77;;;4.95;;
73776;SDS011;62088;50.240;2.696;2022-12-07T16:17:21;9.55;;;4.78;;
73776;SDS011;62088;50.240;2.696;2022-12-07T16:19:48;10.75;;;4.22;;
73776;SDS011;62088;50.240;2.696;2022-12-07T16:22:15;8.02;;;4.20;;
73776;SDS011;62088;50.240;2.696;2022-12-07T16:24:42;14.10;;;4.70;;
73776;SDS011;62088;50.240;2.696;2022-12-07T16:27:08;19.98;;;6.03;;
73776;SDS011;62088;50.240;2.696;2022-12-07T16:29:36;14.57;;;4.38;;
73776;SDS011;62088;50.240;2.696;2022-12-07T16:32:03;11.73;;;4.50;;
73776;SDS011;62088;50.240;2.696;2022-12-07T16:34:30;11.00;;;5.32;;
73776;SDS011;62088;50.240;2.696;2022-12-07T16:36:57;10.77;;;4.60;;
73776;SDS011;62088;50.240;2.696;2022-12-07T16:39:30;11.57;;;5.35;;
73776;SDS011;62088;50.240;2.696;2022-12-07T16:41:58;9.80;;;4.80;;
73776;SDS011;62088;50.240;2.696;2022-12-07T16:44:25;9.18;;;4.65;;
73776;SDS011;62088;50.240;2.696;2022-12-07T16:46:52;8.98;;;4.82;;
73776;SDS011;62088;50.240;2.696;2022-12-07T16:49:19;11.52;;;5.05;;
73776;SDS011;62088;50.240;2.696;2022-12-07T16:51:48;10.57;;;5.65;;
73776;SDS011;62088;50.240;2.696;2022-12-07T16:54:36;9.93;;;5.00;;
73776;SDS011;62088;50.240;2.696;2022-12-07T16:57:03;8.77;;;4.63;;
73776;SDS011;62088;50.240;2.696;2022-12-07T16:59:30;8.80;;;4.18;;
73776;SDS011;62088;50.240;2.696;2022-12-07T17:01:57;9.57;;;4.90;;
73776;SDS011;62088;50.240;2.696;2022-12-07T17:04:24;9.25;;;4.50;;
73776;SDS011;62088;50.240;2.696;2022-12-07T17:06:52;11.73;;;4.85;;